Time;durP1;ratioP1;P1;durP2;ratioP2;P2;SDS_P1;SDS_P2;PMS_P1;PMS_P2;Temp;Humidity;BMP_temperature;BMP_pressure;BME280_temperature;BME280_humidity;BME280_pressure;Samples;Min_cycle;Max_cycle;Signal;HPM_P1;HPM_P2
2023/05/09 00:01:28;;;;;;;6.07;5.47;;;;;;;18.11;74.00;101108.66;5009385;28;20501;-85
2023/05/09 00:04:31;;;;;;;278.98;196.18;;;;;;;18.18;73.54;101112.41;5011498;28;20061;-85
2023/05/09 00:07:33;;;;;;;338.20;213.65;;;;;;;18.17;73.47;101110.78;5003238;28;20042;-84
2023/05/09 00:10:36;;;;;;;1999.90;999.90;;;;;;;18.01;75.95;101111.94;5053460;23;20049;-81
2023/05/09 00:13:39;;;;;;;1999.90;999.90;;;;;;;17.81;77.39;101109.13;5034849;28;20038;-81
2023/05/09 00:16:41;;;;;;;1999.90;999.90;;;;;;;17.77;76.84;101110.97;5042606;28;20045;-81
2023/05/09 00:19:44;;;;;;;1906.63;432.15;;;;;;;17.62;78.12;101110.97;5043044;28;20068;-81
2023/05/09 00:22:47;;;;;;;1999.90;591.03;;;;;;;17.61;78.14;101121.16;5042656;28;20038;-81
2023/05/09 00:25:49;;;;;;;1684.68;305.92;;;;;;;17.76;77.34;101106.63;5039058;28;20042;-81
2023/05/09 00:28:52;;;;;;;1661.25;791.30;;;;;;;17.94;75.82;101107.88;5044153;28;20042;-81
2023/05/09 00:31:55;;;;;;;1999.90;999.90;;;;;;;17.82;74.51;101098.91;5041491;28;20033;-81
2023/05/09 00:34:57;;;;;;;1999.90;999.90;;;;;;;17.97;74.13;101100.88;5039819;28;20045;-81
2023/05/09 00:38:00;;;;;;;1799.35;642.42;;;;;;;17.95;73.35;101100.41;5040312;28;20409;-81
2023/05/09 00:41:03;;;;;;;1806.82;564.20;;;;;;;17.83;73.92;101104.03;5023992;28;20049;-80
2023/05/09 00:44:06;;;;;;;83.22;74.32;;;;;;;17.85;73.85;101095.44;5035116;28;20039;-81
2023/05/09 00:47:08;;;;;;;1074.20;453.08;;;;;;;17.94;73.40;101091.34;5034072;28;20045;-80
2023/05/09 00:50:12;;;;;;;8.65;5.40;;;;;;;18.04;72.60;101098.28;5045041;28;20045;-80
2023/05/09 00:53:15;;;;;;;6.63;5.60;;;;;;;17.99;72.49;101093.03;5042621;28;20053;-80
2023/05/09 00:56:19;;;;;;;7.55;5.65;;;;;;;18.06;72.47;101093.22;5043988;28;20056;-80
2023/05/09 00:59:22;;;;;;;7.18;5.28;;;;;;;18.10;72.22;101079.53;5042827;28;20413;-80
2023/05/09 01:02:24;;;;;;;5.93;4.80;;;;;;;18.03;72.45;101082.13;5044574;28;20057;-81
2023/05/09 01:05:28;;;;;;;6.70;5.10;;;;;;;18.02;73.09;101080.53;5045589;28;20408;-81
2023/05/09 01:08:54;;;;;;;7.82;5.00;;;;;;;18.00;72.88;101077.31;5050207;28;20104;-81
2023/05/09 01:12:13;;;;;;;8.68;5.00;;;;;;;18.10;72.06;101068.53;5046648;28;20047;-81
2023/05/09 01:15:21;;;;;;;9.18;4.78;;;;;;;17.95;72.90;101070.94;5045230;28;20049;-82
2023/05/09 01:18:30;;;;;;;4.63;4.18;;;;;;;17.87;73.63;101069.19;5037747;28;20052;-81
2023/05/09 01:21:35;;;;;;;5.82;4.15;;;;;;;18.00;73.01;101071.81;5048057;28;20056;-81
2023/05/09 01:24:41;;;;;;;5.57;4.63;;;;;;;17.81;72.88;101067.84;5046455;28;20044;-81
2023/05/09 01:28:10;;;;;;;6.32;4.22;;;;;;;17.73;72.58;101071.56;5040896;28;20044;-81
2023/05/09 01:31:13;;;;;;;6.57;5.05;;;;;;;17.69;72.80;101067.94;5029593;28;20340;-81
2023/05/09 01:34:16;;;;;;;6.55;4.15;;;;;;;17.68;72.76;101082.03;5037970;28;20044;-80
2023/05/09 01:37:21;;;;;;;7.63;4.07;;;;;;;17.71;72.25;101079.38;5048278;28;20052;-80
2023/05/09 01:40:20;;;;;;;;;;;;;;;17.82;71.81;101085.16;5046976;28;20049;-80
2023/05/09 01:43:25;;;;;;;6.30;3.92;;;;;;;17.89;71.73;101082.56;5051348;28;19913;-80
2023/05/09 01:46:30;;;;;;;6.47;2.92;;;;;;;17.87;71.48;101076.63;5048383;28;20044;-80
2023/05/09 01:49:35;;;;;;;5.30;3.97;;;;;;;17.89;71.24;101077.06;5027727;28;20052;-80
2023/05/09 01:52:39;;;;;;;4.68;3.65;;;;;;;17.90;71.07;101073.97;5027812;28;20045;-80
2023/05/09 01:55:43;;;;;;;4.32;3.85;;;;;;;17.87;71.08;101080.19;5029937;28;20056;-81
2023/05/09 01:58:47;;;;;;;5.93;3.30;;;;;;;17.93;70.33;101066.94;5042002;28;20045;-81
2023/05/09 02:01:49;;;;;;;6.32;4.07;;;;;;;17.93;70.24;101077.94;5026981;28;20049;-81
2023/05/09 02:04:53;;;;;;;4.82;3.78;;;;;;;17.94;70.01;101079.53;5041708;28;20044;-80
2023/05/09 02:07:57;;;;;;;4.15;3.50;;;;;;;18.02;69.83;101062.06;5040248;28;20044;-80
2023/05/09 02:11:02;;;;;;;4.88;3.60;;;;;;;17.97;69.14;101059.59;5048997;28;20040;-80
2023/05/09 02:14:05;;;;;;;4.43;4.00;;;;;;;17.88;69.74;101058.94;5048038;28;20056;-80
2023/05/09 02:17:08;;;;;;;4.10;3.40;;;;;;;17.90;69.49;101054.69;5048628;28;20047;-80
2023/05/09 02:20:10;;;;;;;7.20;3.42;;;;;;;17.89;69.24;101052.31;5035787;28;20048;-80
2023/05/09 02:23:13;;;;;;;7.22;3.42;;;;;;;17.88;69.02;101046.00;5048622;28;20522;-80
2023/05/09 02:26:17;;;;;;;4.72;3.25;;;;;;;17.92;67.58;101044.16;5047002;28;20052;-80
2023/05/09 02:29:22;;;;;;;6.88;3.40;;;;;;;17.95;68.04;101045.38;5052423;28;20047;-80
2023/05/09 02:32:27;;;;;;;3.93;3.30;;;;;;;18.02;68.03;101047.50;5049427;28;20044;-81
2023/05/09 02:35:31;;;;;;;6.40;3.30;;;;;;;17.97;67.69;101050.53;5053040;28;20048;-81
2023/05/09 02:38:35;;;;;;;4.28;3.47;;;;;;;17.78;66.86;101043.78;5049763;28;20040;-81
2023/05/09 02:41:37;;;;;;;3.65;2.80;;;;;;;17.65;66.72;101049.72;5040273;28;20456;-81
2023/05/09 02:44:40;;;;;;;4.07;3.50;;;;;;;17.60;66.53;101047.25;5032712;28;20048;-81
2023/05/09 02:47:43;;;;;;;3.92;3.05;;;;;;;17.70;66.26;101039.28;5041040;28;20049;-81
2023/05/09 02:50:46;;;;;;;4.22;3.38;;;;;;;17.60;65.84;101036.25;5044399;28;20048;-81
2023/05/09 02:53:49;;;;;;;6.75;2.75;;;;;;;17.71;65.49;101034.56;5039560;28;20056;-81
2023/05/09 02:56:51;;;;;;;4.88;2.70;;;;;;;17.49;64.58;101041.44;5037677;28;20060;-81
2023/05/09 02:59:54;;;;;;;3.45;2.72;;;;;;;17.43;63.93;101038.16;5039834;28;20054;-81
2023/05/09 03:02:57;;;;;;;3.78;2.60;;;;;;;17.33;64.00;101033.19;5043506;28;20080;-81
2023/05/09 03:05:59;;;;;;;4.57;3.30;;;;;;;17.34;63.91;101029.28;5031913;28;20117;-81
2023/05/09 03:09:02;;;;;;;3.33;2.33;;;;;;;17.30;63.20;101028.41;5041740;28;20412;-81
2023/05/09 03:12:05;;;;;;;7.82;2.60;;;;;;;17.20;62.74;101033.59;5025885;28;20397;-81
2023/05/09 03:15:07;;;;;;;7.43;2.78;;;;;;;17.19;62.93;101032.81;5024869;28;20057;-81
2023/05/09 03:18:10;;;;;;;3.05;2.38;;;;;;;17.12;62.14;101037.31;5040931;28;20049;-80
2023/05/09 03:21:13;;;;;;;6.47;2.55;;;;;;;17.13;61.74;101034.22;5044573;28;20041;-81
2023/05/09 03:24:16;;;;;;;3.13;2.35;;;;;;;17.14;61.61;101040.50;5044563;28;20404;-81
2023/05/09 03:27:19;;;;;;;2.67;1.98;;;;;;;17.16;61.37;101036.28;5054228;28;20041;-81
2023/05/09 03:30:22;;;;;;;2.60;2.10;;;;;;;17.25;60.97;101049.84;5033808;28;20428;-81
2023/05/09 03:33:26;;;;;;;2.70;2.10;;;;;;;17.28;61.26;101049.13;5042777;28;20044;-81
2023/05/09 03:36:30;;;;;;;2.55;2.25;;;;;;;17.43;60.73;101049.16;5047247;28;20052;-81
2023/05/09 03:39:33;;;;;;;3.70;2.75;;;;;;;17.47;60.83;101047.28;5045312;28;20045;-80
2023/05/09 03:42:36;;;;;;;3.25;2.72;;;;;;;17.52;60.62;101046.25;5026057;28;20049;-81
2023/05/09 03:45:38;;;;;;;8.43;2.35;;;;;;;17.60;60.77;101039.00;5026532;28;20512;-81
2023/05/09 03:48:42;;;;;;;3.53;2.88;;;;;;;17.55;62.12;101048.28;5038168;28;20048;-81
2023/05/09 03:51:45;;;;;;;5.85;2.80;;;;;;;17.52;62.55;101052.53;5044731;28;20527;-81
2023/05/09 03:54:48;;;;;;;8.07;3.35;;;;;;;17.39;64.65;101051.00;5034619;28;20048;-81
2023/05/09 03:57:51;;;;;;;4.07;3.03;;;;;;;17.50;64.71;101054.03;5045079;28;20056;-81
2023/05/09 04:00:52;;;;;;;4.45;3.20;;;;;;;17.48;65.63;101064.59;5041151;28;20516;-81
2023/05/09 04:03:56;;;;;;;4.07;3.45;;;;;;;17.44;66.63;101056.25;5038325;28;20060;-81
2023/05/09 04:06:58;;;;;;;4.57;3.50;;;;;;;17.40;66.61;101060.88;5049938;28;20053;-81
2023/05/09 04:10:00;;;;;;;5.10;3.60;;;;;;;17.45;66.08;101063.34;5034387;28;20542;-81
2023/05/09 04:13:03;;;;;;;4.70;3.80;;;;;;;17.40;65.73;101058.13;5041763;28;20132;-81
2023/05/09 04:16:06;;;;;;;4.63;3.67;;;;;;;17.40;65.44;101058.13;5059675;28;20048;-81
2023/05/09 04:19:08;;;;;;;14.18;3.80;;;;;;;17.38;65.68;101057.66;5045810;28;20048;-81
2023/05/09 04:22:11;;;;;;;4.78;3.67;;;;;;;17.53;65.27;101056.06;5046780;28;20524;-81
2023/05/09 04:25:14;;;;;;;6.15;3.60;;;;;;;17.48;65.37;101048.88;5033704;28;20048;-81
2023/05/09 04:28:17;;;;;;;5.72;4.72;;;;;;;17.41;66.15;101047.94;5037375;28;20048;-81
2023/05/09 04:31:20;;;;;;;5.97;3.83;;;;;;;17.28;66.90;101052.69;5044827;28;20056;-81
2023/05/09 04:34:23;;;;;;;6.65;4.95;;;;;;;17.23;67.37;101052.94;5035773;28;20121;-80
2023/05/09 04:37:26;;;;;;;7.72;4.70;;;;;;;17.26;67.20;101051.44;5044512;28;20053;-81
2023/05/09 04:40:29;;;;;;;7.63;4.40;;;;;;;17.33;67.27;101054.38;5055050;28;20056;-81
2023/05/09 04:43:32;;;;;;;7.18;4.38;;;;;;;17.20;66.63;101047.34;5039409;28;20057;-81
2023/05/09 04:46:35;;;;;;;5.05;4.00;;;;;;;17.05;67.18;101041.47;5047785;28;20045;-81
2023/05/09 04:49:38;;;;;;;6.95;4.82;;;;;;;17.07;67.26;101049.34;5048612;28;20056;-81
2023/05/09 04:52:40;;;;;;;8.52;4.68;;;;;;;16.99;67.70;101055.81;5042901;28;20041;-81
2023/05/09 04:55:43;;;;;;;12.82;5.70;;;;;;;17.04;67.88;101053.59;5042706;28;20048;-81
2023/05/09 04:58:46;;;;;;;8.85;4.22;;;;;;;17.16;67.64;101052.75;5025666;28;20044;-82
2023/05/09 05:01:48;;;;;;;6.13;4.57;;;;;;;17.21;67.27;101052.50;5041093;28;20072;-82
2023/05/09 05:04:52;;;;;;;8.60;5.05;;;;;;;17.22;67.21;101053.31;5027227;28;20052;-81
2023/05/09 05:07:54;;;;;;;6.40;4.45;;;;;;;17.19;67.28;101054.78;5046067;28;20063;-81
2023/05/09 05:10:58;;;;;;;8.50;4.85;;;;;;;17.08;67.05;101062.75;5057464;28;20524;-82
2023/05/09 05:14:01;;;;;;;11.75;5.15;;;;;;;17.12;66.74;101068.31;5040398;28;20052;-81
2023/05/09 05:17:04;;;;;;;7.45;4.88;;;;;;;17.10;66.00;101068.69;5036845;28;20049;-81
2023/05/09 05:20:07;;;;;;;6.35;4.88;;;;;;;17.28;65.49;101073.88;5035983;28;20053;-82
2023/05/09 05:23:11;;;;;;;7.20;5.05;;;;;;;17.34;64.68;101067.78;5042785;28;20056;-82
2023/05/09 05:26:14;;;;;;;7.53;4.10;;;;;;;17.38;64.19;101079.66;5047280;28;20041;-82
2023/05/09 05:29:16;;;;;;;9.13;4.60;;;;;;;17.51;63.28;101077.66;5039654;28;20044;-83
2023/05/09 05:32:19;;;;;;;8.23;4.20;;;;;;;17.55;62.75;101078.53;5035582;28;20048;-79
2023/05/09 05:35:21;;;;;;;5.47;4.00;;;;;;;17.56;62.27;101079.34;5045238;28;20044;-82
2023/05/09 05:38:24;;;;;;;8.38;4.55;;;;;;;17.60;61.59;101078.31;5043467;28;20056;-82
2023/05/09 05:41:27;;;;;;;5.97;4.07;;;;;;;17.66;60.19;101089.84;5030948;28;20409;-82
2023/05/09 05:44:30;;;;;;;8.10;4.07;;;;;;;17.68;59.43;101098.53;5033548;28;20052;-82
2023/05/09 05:47:32;;;;;;;6.28;3.67;;;;;;;17.51;58.79;101099.66;5046098;28;20048;-82
2023/05/09 05:50:35;;;;;;;5.28;3.85;;;;;;;17.41;58.77;101089.16;5030120;28;20044;-81
2023/05/09 05:53:37;;;;;;;4.82;4.28;;;;;;;17.49;59.24;101088.19;5032463;28;20041;-83
2023/05/09 05:56:41;;;;;;;7.78;4.28;;;;;;;17.49;59.44;101096.44;5026907;28;20048;-82
2023/05/09 05:59:43;;;;;;;9.23;4.25;;;;;;;17.42;58.91;101099.00;5030224;28;20072;-82
2023/05/09 06:02:46;;;;;;;6.80;4.18;;;;;;;17.49;59.68;101089.00;5037023;28;20519;-82
2023/05/09 06:05:55;;;;;;;5.15;4.15;;;;;;;17.57;58.78;101090.00;5042440;28;20511;-82
2023/05/09 06:08:58;;;;;;;5.00;4.07;;;;;;;17.60;58.00;101092.06;5041177;28;20056;-83
2023/05/09 06:12:02;;;;;;;5.57;4.03;;;;;;;17.71;59.66;101092.34;5043756;28;20041;-83
2023/05/09 06:15:05;;;;;;;4.82;4.32;;;;;;;17.74;59.89;101081.41;5038525;28;20048;-82
2023/05/09 06:18:08;;;;;;;4.85;3.63;;;;;;;17.72;59.73;101088.44;5139486;23;20064;-85
2023/05/09 06:21:13;;;;;;;8.65;4.75;;;;;;;17.74;59.81;101092.41;5039123;28;20088;-84
2023/05/09 06:24:16;;;;;;;4.47;3.97;;;;;;;17.75;59.40;101088.53;5023574;28;20048;-83
2023/05/09 06:27:19;;;;;;;5.18;4.43;;;;;;;17.71;59.23;101082.13;5023484;28;20068;-84
2023/05/09 06:30:21;;;;;;;7.22;4.00;;;;;;;17.69;58.55;101084.44;5037693;28;20539;-83
2023/05/09 06:33:24;;;;;;;7.10;4.50;;;;;;;17.78;57.89;101082.28;5038122;28;20681;-84
2023/05/09 06:36:27;;;;;;;9.85;3.95;;;;;;;17.92;57.60;101092.88;5037711;28;20044;-81
2023/05/09 06:39:29;;;;;;;5.40;4.13;;;;;;;17.76;57.24;101090.13;5038098;28;20515;-84
2023/05/09 06:42:32;;;;;;;4.97;3.78;;;;;;;17.80;57.66;101080.00;5038797;28;20044;-84
2023/05/09 06:45:35;;;;;;;6.20;4.28;;;;;;;17.80;57.28;101074.50;5037614;28;20057;-83
2023/05/09 06:48:43;;;;;;;6.88;4.25;;;;;;;17.87;56.69;101068.38;5033101;28;20044;-82
2023/05/09 06:51:46;;;;;;;8.18;4.20;;;;;;;18.04;56.54;101067.19;5021487;28;20045;-84
2023/05/09 06:54:49;;;;;;;5.40;3.83;;;;;;;18.00;55.68;101064.38;5025570;28;20040;-83
2023/05/09 06:57:51;;;;;;;5.15;4.00;;;;;;;17.90;56.22;101065.72;5032294;28;20052;-84
2023/05/09 07:00:54;;;;;;;5.95;3.70;;;;;;;18.06;56.41;101070.41;5036558;28;20040;-81
2023/05/09 07:03:57;;;;;;;6.03;4.22;;;;;;;18.17;56.08;101066.75;5046056;28;20044;-84
2023/05/09 07:06:59;;;;;;;4.05;3.45;;;;;;;18.08;55.96;101057.09;5034962;28;20413;-83
2023/05/09 07:10:03;;;;;;;5.97;4.13;;;;;;;18.14;56.04;101061.16;5021380;28;20041;-83
2023/05/09 07:13:05;;;;;;;5.00;3.40;;;;;;;18.19;56.39;101052.59;5039174;28;20060;-82
2023/05/09 07:16:08;;;;;;;5.20;3.42;;;;;;;18.26;55.33;101052.78;5025347;28;20063;-80
2023/05/09 07:19:11;;;;;;;6.75;3.88;;;;;;;18.26;54.47;101036.25;5027945;28;20045;-80
2023/05/09 07:22:13;;;;;;;5.40;3.78;;;;;;;18.24;53.79;101044.88;5029382;28;20109;-83
2023/05/09 07:25:17;;;;;;;8.75;3.15;;;;;;;18.34;53.71;101049.81;5032833;28;20053;-82
2023/05/09 07:28:20;;;;;;;11.68;3.40;;;;;;;18.25;53.32;101040.97;5033543;28;20068;-83
2023/05/09 07:31:22;;;;;;;4.95;2.95;;;;;;;18.30;54.10;101042.66;5031874;28;20056;-82
2023/05/09 07:34:25;;;;;;;5.15;3.10;;;;;;;18.43;53.34;101038.63;5021485;28;20373;-83
2023/05/09 07:37:28;;;;;;;6.13;3.30;;;;;;;18.53;53.03;101040.00;5024803;28;20416;-83
2023/05/09 07:40:30;;;;;;;7.30;3.35;;;;;;;19.45;56.80;101037.19;5024801;28;20416;-81
2023/05/09 07:43:33;;;;;;;13.45;3.97;;;;;;;19.84;55.78;101039.78;5030772;28;20037;-81
2023/05/09 07:46:36;;;;;;;7.50;3.30;;;;;;;19.92;51.32;101033.19;5038453;28;20037;-82
2023/05/09 07:49:41;;;;;;;6.90;3.78;;;;;;;20.20;53.26;101050.22;5040722;28;20036;-82
2023/05/09 07:52:44;;;;;;;4.72;3.20;;;;;;;19.62;51.00;101041.38;5034666;28;20047;-81
2023/05/09 07:55:47;;;;;;;5.88;3.30;;;;;;;19.42;50.86;101043.38;5061762;28;20056;-80
2023/05/09 07:58:50;;;;;;;7.03;3.17;;;;;;;19.46;52.57;101049.78;5035051;28;20048;-81
2023/05/09 08:01:52;;;;;;;4.47;3.10;;;;;;;19.56;50.50;101051.94;5038207;28;20036;-81
2023/05/09 08:04:55;;;;;;;9.15;3.50;;;;;;;19.54;51.23;101043.25;5021741;28;20048;-80
2023/05/09 08:07:57;;;;;;;4.28;2.85;;;;;;;19.58;51.15;101046.84;5034333;28;20095;-80
2023/05/09 08:11:00;;;;;;;10.15;4.03;;;;;;;19.46;50.57;101043.47;5034690;28;20057;-81
2023/05/09 08:14:03;;;;;;;4.65;2.70;;;;;;;19.53;51.34;101032.56;5032539;28;20048;-81
2023/05/09 08:17:05;;;;;;;4.30;3.10;;;;;;;19.61;50.76;101043.34;5037812;28;20420;-80
2023/05/09 08:20:08;;;;;;;3.80;3.22;;;;;;;19.65;50.34;101046.19;5039616;28;20057;-81
2023/05/09 08:23:10;;;;;;;4.28;2.72;;;;;;;19.79;50.99;101038.13;5027606;28;20092;-81
2023/05/09 08:26:13;;;;;;;5.82;3.10;;;;;;;19.88;51.04;101038.66;5021401;28;20056;-81
2023/05/09 08:29:16;;;;;;;4.55;3.28;;;;;;;19.91;50.15;101035.16;5019926;28;20045;-81
2023/05/09 08:32:18;;;;;;;4.00;2.63;;;;;;;19.93;50.05;101029.28;5029648;28;20045;-79
2023/05/09 08:35:21;;;;;;;8.73;3.95;;;;;;;19.98;49.22;101024.25;5021525;28;20064;-81
2023/05/09 08:38:24;;;;;;;3.10;2.60;;;;;;;19.99;49.28;101016.75;5033316;28;20524;-81
2023/05/09 08:41:34;;;;;;;7.47;3.10;;;;;;;20.12;49.74;101015.38;5034346;28;20048;-81
2023/05/09 08:44:37;;;;;;;5.50;3.40;;;;;;;20.13;50.31;101011.44;5029060;28;20048;-81
2023/05/09 08:47:41;;;;;;;4.82;3.00;;;;;;;20.14;49.55;101013.03;5023462;28;20520;-81
2023/05/09 08:50:31;;;;;;;5.28;2.65;;;;;;;20.10;48.71;101006.69;5028701;28;20044;-81
2023/05/09 08:53:21;;;;;;;7.00;3.05;;;;;;;20.01;50.31;101008.91;5028077;28;20057;-80
2023/05/09 08:56:16;;;;;;;5.53;2.95;;;;;;;20.16;50.21;101009.91;5034864;28;20037;-81
2023/05/09 08:59:11;;;;;;;3.50;2.83;;;;;;;20.16;49.33;101002.44;5033040;28;20522;-81
2023/05/09 09:02:07;;;;;;;4.97;2.90;;;;;;;20.19;49.63;101001.66;5037310;28;20523;-81
2023/05/09 09:05:01;;;;;;;4.72;2.58;;;;;;;20.14;49.94;101006.72;5019523;28;20052;-81
2023/05/09 09:07:56;;;;;;;7.03;2.90;;;;;;;20.13;49.80;101005.13;5021855;28;20048;-80
2023/05/09 09:10:51;;;;;;;4.75;3.70;;;;;;;20.06;51.31;100997.56;5035900;28;20048;-81
2023/05/09 09:13:48;;;;;;;4.50;3.15;;;;;;;20.57;51.51;100997.06;5019746;28;20041;-81
2023/05/09 09:16:43;;;;;;;6.35;3.30;;;;;;;20.86;49.67;101001.78;5031347;28;20520;-81
2023/05/09 09:19:37;;;;;;;3.33;2.97;;;;;;;21.03;47.78;100987.31;5032809;28;20397;-82
2023/05/09 09:22:32;;;;;;;;;;;;;;;21.15;48.37;101000.91;5025938;28;20043;-82
2023/05/09 09:25:27;;;;;;;9.13;3.58;;;;;;;21.25;48.73;100993.91;5026175;28;19917;-81
2023/05/09 09:28:21;;;;;;;3.78;2.83;;;;;;;21.32;49.37;100992.00;5029777;28;20116;-81
2023/05/09 09:31:27;;;;;;;6.72;3.63;;;;;;;21.58;49.06;100990.25;5021969;28;20071;-83
2023/05/09 09:34:21;;;;;;;;;;;;;;;21.69;48.19;100993.88;5020042;28;20060;-84
2023/05/09 09:37:25;;;;;;;10.18;3.67;;;;;;;21.94;47.55;100997.66;5036153;28;20372;-82
2023/05/09 09:40:17;;;;;;;7.38;4.50;;;;;;;21.99;47.47;100988.97;5033379;28;20044;-83
2023/05/09 09:43:10;;;;;;;6.60;5.30;;;;;;;21.89;48.14;100997.22;5018471;28;20045;-83
2023/05/09 09:46:09;;;;;;;5.53;4.45;;;;;;;21.98;48.34;100989.38;5021033;28;20526;-84
2023/05/09 09:49:03;;;;;;;6.25;5.13;;;;;;;22.01;48.72;100994.94;5011515;28;20523;-82
2023/05/09 09:51:53;;;;;;;9.93;5.45;;;;;;;25.29;39.47;100989.78;5026277;28;20126;-83
2023/05/09 09:54:48;;;;;;;8.18;5.10;;;;;;;28.14;35.02;100982.19;5033008;28;20049;-83
2023/05/09 09:57:43;;;;;;;8.52;4.88;;;;;;;24.51;41.75;100981.84;5023051;28;20052;-81
2023/05/09 10:00:38;;;;;;;6.78;4.40;;;;;;;23.46;43.48;100969.75;5026100;28;20404;-82
2023/05/09 10:03:36;;;;;;;6.28;4.75;;;;;;;22.94;44.21;100974.00;5033924;28;20044;-82
2023/05/09 10:06:30;;;;;;;7.68;5.28;;;;;;;23.03;44.82;100966.88;5029508;28;20048;-82
2023/05/09 10:09:25;;;;;;;12.52;6.07;;;;;;;22.72;45.12;100959.28;5032822;28;20041;-83
2023/05/09 10:12:18;;;;;;;11.15;5.55;;;;;;;22.58;48.12;100959.22;5031551;28;20056;-82
2023/05/09 10:15:11;;;;;;;8.93;6.57;;;;;;;22.16;47.65;100954.25;5035979;28;20064;-81
2023/05/09 10:18:06;;;;;;;8.85;6.20;;;;;;;25.22;39.53;100966.78;5020603;28;20052;-85
2023/05/09 10:21:02;;;;;;;9.50;5.35;;;;;;;23.49;43.71;100952.28;5025432;28;20048;-82
2023/05/09 10:23:58;;;;;;;6.15;4.53;;;;;;;23.27;43.06;100950.66;5030322;28;20041;-81
2023/05/09 10:26:54;;;;;;;8.00;5.25;;;;;;;23.21;44.88;100947.47;5028825;28;20060;-81
2023/05/09 10:30:09;;;;;;;8.60;4.45;;;;;;;22.85;43.77;100946.66;5027847;28;20405;-80
2023/05/09 10:33:09;;;;;;;5.75;3.83;;;;;;;22.73;43.01;100949.00;5008404;28;20044;-81
2023/05/09 10:36:04;;;;;;;5.68;4.53;;;;;;;22.59;43.42;100949.72;5015223;28;20124;-81
2023/05/09 10:38:56;;;;;;;8.88;5.65;;;;;;;22.41;44.44;100946.06;5028231;28;20041;-81
2023/05/09 10:41:50;;;;;;;11.48;5.20;;;;;;;22.61;44.59;100944.56;5028011;28;20408;-81
2023/05/09 10:44:45;;;;;;;6.10;4.47;;;;;;;22.38;45.34;100941.31;5019822;28;20505;-81
2023/05/09 10:47:39;;;;;;;4.93;3.38;;;;;;;22.56;43.35;100948.50;5013752;28;20121;-78
2023/05/09 10:50:34;;;;;;;4.65;3.47;;;;;;;22.54;42.64;100947.31;5028427;28;20044;-79
2023/05/09 10:53:43;;;;;;;5.65;3.75;;;;;;;22.67;41.73;100939.44;5028396;28;20041;-79
2023/05/09 10:56:38;;;;;;;5.00;3.40;;;;;;;22.81;43.43;100933.94;5033316;28;20520;-79
2023/05/09 10:59:42;;;;;;;4.32;3.53;;;;;;;23.02;42.57;100920.91;5034404;28;20036;-80
2023/05/09 11:02:37;;;;;;;4.50;3.47;;;;;;;22.97;42.10;100915.75;5038269;28;20049;-79
2023/05/09 11:05:40;;;;;;;6.82;3.83;;;;;;;23.00;43.15;100914.19;5034484;28;20056;-80
2023/05/09 11:08:35;;;;;;;10.30;4.03;;;;;;;23.15;43.60;100909.44;5030258;28;20523;-82
2023/05/09 11:11:27;;;;;;;6.32;3.53;;;;;;;22.97;41.31;100907.44;5032255;28;20060;-81
2023/05/09 11:14:39;;;;;;;6.65;3.95;;;;;;;23.27;41.94;100900.69;5033679;28;20036;-82
2023/05/09 11:17:33;;;;;;;8.00;3.50;;;;;;;23.19;42.33;100899.91;5038996;28;20685;-81
2023/05/09 11:20:31;;;;;;;7.78;3.55;;;;;;;23.14;41.22;100899.53;5037811;28;20057;-83
2023/05/09 11:23:28;;;;;;;6.80;3.47;;;;;;;23.24;42.00;100890.41;5040288;28;20052;-81
2023/05/09 11:26:22;;;;;;;5.07;3.90;;;;;;;23.37;42.21;100888.78;5037576;28;20041;-80
2023/05/09 11:29:16;;;;;;;6.00;3.78;;;;;;;24.81;38.73;100889.50;5037827;28;20041;-80
2023/05/09 11:32:14;;;;;;;4.93;4.10;;;;;;;23.50;41.68;100892.78;5036970;28;20048;-83
2023/05/09 11:35:16;;;;;;;5.72;4.55;;;;;;;23.20;41.63;100886.84;5032966;28;20036;-79
2023/05/09 11:38:11;;;;;;;7.55;4.72;;;;;;;23.35;43.29;100878.13;5022895;28;20053;-78
2023/05/09 11:41:03;;;;;;;6.03;4.20;;;;;;;23.46;43.62;100878.13;5034596;28;20041;-82
2023/05/09 11:43:58;;;;;;;8.75;3.78;;;;;;;27.74;34.07;100872.25;5037365;28;20408;-82
2023/05/09 11:46:50;;;;;;;7.43;4.07;;;;;;;26.23;36.29;100880.63;5039593;28;20049;-83
2023/05/09 11:49:46;;;;;;;5.97;3.72;;;;;;;24.94;38.47;100878.72;5040466;28;20048;-81
2023/05/09 11:52:39;;;;;;;6.07;4.20;;;;;;;24.41;39.91;100874.25;5034225;28;20044;-80
2023/05/09 11:55:31;;;;;;;9.85;4.95;;;;;;;25.00;38.91;100869.50;5033619;28;20048;-82
2023/05/09 11:58:26;;;;;;;5.93;4.72;;;;;;;25.42;38.19;100873.94;5016680;28;20044;-83
2023/05/09 12:01:18;;;;;;;6.75;4.43;;;;;;;24.67;40.00;100862.59;5035869;28;20428;-83
2023/05/09 12:04:13;;;;;;;6.85;5.22;;;;;;;24.20;39.65;100849.34;5031111;28;20045;-82
2023/05/09 12:07:08;;;;;;;6.15;4.72;;;;;;;24.39;40.01;100854.41;5039267;28;20052;-81
2023/05/09 12:10:00;;;;;;;;;;;;;;;27.01;36.21;100846.03;5025734;28;20044;-82
2023/05/09 12:12:55;;;;;;;7.60;6.05;;;;;;;26.16;36.71;100855.59;5035990;28;19913;-80
2023/05/09 12:15:47;;;;;;;5.95;4.88;;;;;;;25.18;38.86;100843.53;5034487;28;20044;-80
2023/05/09 12:18:39;;;;;;;;;;;;;;;24.66;39.95;100846.28;5026631;28;20056;-82
2023/05/09 12:21:33;;;;;;;8.35;7.30;;;;;;;25.76;37.81;100836.97;5023147;28;19912;-81
2023/05/09 12:24:25;;;;;;;;;;;;;;;23.80;41.89;100831.22;5031880;28;20412;-85
2023/05/09 12:27:20;;;;;;;6.22;3.88;;;;;;;24.23;40.50;100834.63;5041239;28;20379;-84
2023/05/09 12:30:12;;;;;;;6.50;4.50;;;;;;;24.82;39.43;100829.09;5019776;28;20037;-83
2023/05/09 12:33:08;;;;;;;6.95;5.03;;;;;;;25.53;37.80;100807.78;5032399;28;20543;-83
2023/05/09 12:36:09;;;;;;;41.38;37.92;;;;;;;26.09;37.08;100819.47;5049571;28;20060;-84
2023/05/09 12:39:01;;;;;;;7.93;6.78;;;;;;;26.53;36.10;100812.09;5027800;28;20038;-82
2023/05/09 12:41:52;;;;;;;5.75;5.25;;;;;;;25.62;38.59;100807.31;5049491;28;20057;-82
2023/05/09 12:44:51;;;;;;;5.72;4.28;;;;;;;26.96;36.15;100804.66;5012423;28;20061;-85
2023/05/09 12:47:44;;;;;;;7.05;6.05;;;;;;;26.48;34.63;100785.47;5033287;28;20037;-80
2023/05/09 12:50:38;;;;;;;20.50;19.00;;;;;;;27.13;34.43;100789.56;5031466;28;20539;-80
2023/05/09 12:53:29;;;;;;;;;;;;;;;27.84;34.06;100793.78;5016866;28;20488;-82
2023/05/09 12:56:19;;;;;;;12.57;6.65;;;;;;;26.14;36.92;100788.31;5041349;28;19913;-81
2023/05/09 12:59:14;;;;;;;7.20;6.55;;;;;;;25.34;37.87;100786.09;5042507;28;20049;-81
2023/05/09 13:02:09;;;;;;;7.53;6.82;;;;;;;24.75;39.95;100771.53;5038778;28;20049;-84
2023/05/09 13:05:18;;;;;;;8.80;6.82;;;;;;;24.11;40.40;100780.28;5039629;28;20048;-81
2023/05/09 13:08:13;;;;;;;6.30;5.00;;;;;;;23.74;40.04;100772.53;5040272;28;20052;-82
2023/05/09 13:11:06;;;;;;;8.27;3.63;;;;;;;23.37;41.34;100770.25;5019587;28;20048;-82
2023/05/09 13:13:58;;;;;;;3.75;3.30;;;;;;;23.43;41.86;100754.78;5009839;28;20045;-83
2023/05/09 13:16:50;;;;;;;5.70;3.65;;;;;;;23.34;42.00;100759.16;5021377;28;20041;-82
2023/05/09 13:19:43;;;;;;;5.15;4.03;;;;;;;22.77;42.30;100755.69;5031744;28;20045;-81
2023/05/09 13:22:35;;;;;;;5.38;3.35;;;;;;;22.89;42.86;100755.28;5037480;28;20049;-81
2023/05/09 13:25:26;;;;;;;5.25;3.42;;;;;;;22.78;42.58;100746.97;5039973;28;20056;-82
2023/05/09 13:28:22;;;;;;;6.35;4.25;;;;;;;22.72;42.98;100742.22;5044714;28;20045;-83
2023/05/09 13:31:14;;;;;;;6.18;3.33;;;;;;;22.77;43.43;100745.38;5031879;28;20049;-82
2023/05/09 13:34:09;;;;;;;7.53;3.70;;;;;;;22.77;43.99;100745.38;5035740;28;20053;-83
2023/05/09 13:36:59;;;;;;;5.25;3.33;;;;;;;22.60;42.76;100729.53;5052904;28;20049;-82
2023/05/09 13:39:53;;;;;;;7.95;3.47;;;;;;;22.44;43.13;100729.13;5043738;28;20048;-81
2023/05/09 13:42:47;;;;;;;3.95;2.70;;;;;;;22.41;42.64;100727.94;5040108;28;20045;-82
2023/05/09 13:45:42;;;;;;;3.83;2.97;;;;;;;22.49;42.69;100714.88;5052397;28;20053;-82
2023/05/09 13:48:36;;;;;;;4.47;2.78;;;;;;;22.56;42.84;100712.09;5030997;28;20048;-83
2023/05/09 13:51:28;;;;;;;5.05;3.00;;;;;;;22.56;43.59;100718.44;5051491;28;20048;-82
2023/05/09 13:54:17;;;;;;;4.03;3.22;;;;;;;22.57;43.33;100722.00;5040920;28;20040;-82
2023/05/09 13:57:07;;;;;;;8.65;3.00;;;;;;;22.73;43.19;100710.53;5051141;28;20053;-82